Time;durP1;ratioP1;P1;durP2;ratioP2;P2;SDS_P1;SDS_P2;PMS_P1;PMS_P2;Temp;Humidity;BMP_temperature;BMP_pressure;BME280_temperature;BME280_humidity;BME280_pressure;Samples;Min_cycle;Max_cycle;Signal;HPM_P1;HPM_P2
2023/08/05 00:00:51;;;;;;;10.32;8.02;;;;;;;20.92;100.00;96060.09;5065204;28;20024;-79
2023/08/05 00:03:17;;;;;;;12.18;8.75;;;;;;;20.81;100.00;96066.22;5073504;28;20025;-80
2023/08/05 00:05:42;;;;;;;12.80;8.63;;;;;;;20.89;100.00;96057.88;5072064;28;20085;-80
2023/08/05 00:08:08;;;;;;;13.60;9.40;;;;;;;21.08;100.00;96057.78;5055414;28;20016;-79
2023/08/05 00:10:34;;;;;;;12.20;9.02;;;;;;;20.95;100.00;96062.28;5071582;28;20017;-80
2023/08/05 00:12:59;;;;;;;11.52;8.18;;;;;;;21.09;100.00;96046.03;5065777;28;20025;-80
2023/08/05 00:15:25;;;;;;;12.13;9.05;;;;;;;21.06;100.00;96051.84;5053640;28;20036;-80
2023/08/05 00:17:50;;;;;;;10.13;7.63;;;;;;;21.13;100.00;96052.59;5073453;28;20027;-80
2023/08/05 00:20:16;;;;;;;13.18;8.85;;;;;;;21.15;100.00;96051.28;5072008;28;20032;-80
2023/08/05 00:22:42;;;;;;;9.57;7.63;;;;;;;21.02;100.00;96056.03;5063353;28;20013;-80
2023/08/05 00:25:08;;;;;;;14.77;7.55;;;;;;;20.68;100.00;96047.69;5051624;28;20438;-80
2023/08/05 00:27:33;;;;;;;10.82;7.80;;;;;;;21.06;100.00;96043.84;5054976;28;20036;-81
2023/08/05 00:29:59;;;;;;;11.02;8.07;;;;;;;21.10;100.00;96043.16;5055253;28;20016;-80
2023/08/05 00:32:26;;;;;;;10.50;7.53;;;;;;;21.06;100.00;96036.66;5069978;28;20032;-80
2023/08/05 00:34:52;;;;;;;12.88;8.35;;;;;;;21.27;100.00;96034.47;5063563;28;20025;-80
2023/08/05 00:37:18;;;;;;;10.82;8.30;;;;;;;21.40;100.00;96036.94;5071528;28;20032;-80
2023/08/05 00:39:43;;;;;;;10.57;8.43;;;;;;;21.36;100.00;96036.59;5055002;28;20028;-80
2023/08/05 00:42:12;;;;;;;9.82;7.70;;;;;;;21.11;100.00;96033.28;5053228;28;20386;-79
2023/08/05 00:44:37;;;;;;;11.18;8.35;;;;;;;21.16;100.00;96028.06;5045123;28;20029;-80
2023/08/05 00:47:04;;;;;;;11.35;7.70;;;;;;;21.26;100.00;96030.13;5068306;28;20128;-80
2023/08/05 00:49:30;;;;;;;12.70;7.13;;;;;;;21.06;100.00;96036.66;5051953;28;20429;-80
2023/08/05 00:51:58;;;;;;;14.48;7.57;;;;;;;21.24;100.00;96038.41;5051403;28;20033;-80
2023/08/05 00:54:23;;;;;;;11.18;6.53;;;;;;;21.10;100.00;96034.34;5054567;28;20048;-79
2023/08/05 00:56:50;;;;;;;8.48;6.20;;;;;;;20.99;100.00;96035.09;5050703;28;20082;-80
2023/08/05 00:59:24;;;;;;;11.43;7.35;;;;;;;21.14;100.00;96040.84;5068897;28;20085;-80
2023/08/05 01:01:50;;;;;;;9.35;6.18;;;;;;;21.24;100.00;96046.44;5053738;28;20066;-80
2023/08/05 01:04:16;;;;;;;8.77;6.30;;;;;;;21.18;100.00;96052.69;5053555;28;20040;-80
2023/08/05 01:06:42;;;;;;;10.45;6.45;;;;;;;21.44;100.00;96051.47;5071098;28;20084;-80
2023/08/05 01:09:09;;;;;;;10.15;6.50;;;;;;;21.38;100.00;96050.53;5060483;28;20028;-80
2023/08/05 01:11:35;;;;;;;9.23;6.18;;;;;;;21.35;100.00;96051.00;5044061;28;20029;-80
2023/08/05 01:14:01;;;;;;;8.88;6.05;;;;;;;21.15;100.00;96055.81;5042810;28;20120;-80
2023/08/05 01:16:26;;;;;;;10.77;7.07;;;;;;;21.26;100.00;96052.38;5062565;28;20128;-80
2023/08/05 01:18:56;;;;;;;10.55;6.55;;;;;;;21.34;100.00;96054.72;5070857;28;20032;-80
2023/08/05 01:21:35;;;;;;;9.25;6.75;;;;;;;21.13;100.00;96050.72;5050566;28;20029;-80
2023/08/05 01:24:14;;;;;;;11.50;7.75;;;;;;;21.33;100.00;96058.44;5067725;28;20082;-80
2023/08/05 01:26:40;;;;;;;10.02;7.07;;;;;;;21.41;100.00;96054.63;5049561;28;20071;-80
2023/08/05 01:29:07;;;;;;;12.32;8.55;;;;;;;21.58;100.00;96055.56;5064596;28;20029;-80
2023/08/05 01:31:34;;;;;;;16.13;9.18;;;;;;;21.21;100.00;96057.59;5054750;28;20127;-80
2023/08/05 01:34:00;;;;;;;14.48;10.38;;;;;;;21.21;100.00;96054.91;5056323;28;20059;-80
2023/08/05 01:36:26;;;;;;;15.25;10.95;;;;;;;21.09;100.00;96060.25;5052666;28;20029;-80
2023/08/05 01:38:51;;;;;;;14.93;10.10;;;;;;;21.05;100.00;96047.56;5067503;28;20392;-80
2023/08/05 01:41:17;;;;;;;14.75;9.43;;;;;;;21.05;100.00;96044.88;5057732;28;20036;-80
2023/08/05 01:43:43;;;;;;;13.35;9.30;;;;;;;21.13;100.00;96039.22;5046266;28;20043;-80
2023/08/05 01:46:09;;;;;;;14.52;8.60;;;;;;;21.02;100.00;96037.31;5056183;28;20036;-80
2023/08/05 01:48:34;;;;;;;11.45;8.23;;;;;;;21.10;100.00;96035.13;5056672;28;20471;-79
2023/08/05 01:51:00;;;;;;;11.73;7.88;;;;;;;21.03;100.00;96025.59;5049818;28;20031;-79
2023/08/05 01:53:25;;;;;;;11.68;7.28;;;;;;;20.92;100.00;96019.16;5054207;28;20029;-80
2023/08/05 01:55:51;;;;;;;11.77;7.80;;;;;;;20.87;100.00;96019.06;5074450;28;20035;-80
2023/08/05 01:58:16;;;;;;;11.20;7.63;;;;;;;20.83;100.00;96023.25;5062293;28;20025;-80
2023/08/05 02:00:50;;;;;;;13.00;8.32;;;;;;;20.60;100.00;96022.13;5051939;28;20027;-80
2023/08/05 02:03:15;;;;;;;;;;;;;;;20.72;100.00;96011.44;5057694;28;20052;-80
2023/08/05 02:05:43;;;;;;;16.60;9.55;;;;;;;20.83;100.00;96005.34;5049958;28;19959;-80
2023/08/05 02:08:08;;;;;;;13.80;9.75;;;;;;;20.64;100.00;96001.09;5073796;28;20379;-80
2023/08/05 02:10:34;;;;;;;16.98;11.38;;;;;;;20.59;100.00;95998.28;5065177;28;20020;-80
2023/08/05 02:12:59;;;;;;;17.83;11.20;;;;;;;20.60;100.00;96010.63;5065064;28;20532;-80
2023/08/05 02:15:26;;;;;;;14.00;10.45;;;;;;;20.64;100.00;95999.25;5051611;28;20028;-80
2023/08/05 02:17:51;;;;;;;15.88;10.80;;;;;;;20.85;100.00;96003.22;5080669;28;20021;-80
2023/08/05 02:20:17;;;;;;;15.95;10.68;;;;;;;20.66;100.00;95999.03;5050371;28;20493;-79
2023/08/05 02:22:44;;;;;;;16.70;10.52;;;;;;;20.68;100.00;95997.72;5055514;28;20531;-80
2023/08/05 02:25:10;;;;;;;14.98;10.95;;;;;;;20.56;100.00;95988.09;5052382;28;20117;-80
2023/08/05 02:27:35;;;;;;;15.57;11.05;;;;;;;20.52;100.00;95987.69;5047482;28;20024;-80
2023/08/05 02:30:01;;;;;;;15.23;10.10;;;;;;;20.43;100.00;95979.19;5045597;28;20481;-80
2023/08/05 02:32:27;;;;;;;18.25;11.20;;;;;;;20.17;100.00;95966.19;5053208;28;20028;-80
2023/08/05 02:34:52;;;;;;;15.07;10.43;;;;;;;20.42;100.00;95972.22;5067705;28;20031;-80
2023/08/05 02:37:18;;;;;;;16.73;11.07;;;;;;;20.10;100.00;95965.47;5055605;28;20044;-80
2023/08/05 02:39:43;;;;;;;15.90;10.40;;;;;;;20.49;100.00;95969.44;5056702;28;20032;-80
2023/08/05 02:42:11;;;;;;;15.13;10.63;;;;;;;20.53;100.00;95964.50;5057073;28;20524;-80
2023/08/05 02:44:37;;;;;;;16.50;10.13;;;;;;;20.24;100.00;95954.38;5071500;28;20074;-80
2023/08/05 02:47:03;;;;;;;15.10;11.00;;;;;;;20.38;100.00;95955.00;5070313;28;20033;-80
2023/08/05 02:49:28;;;;;;;19.02;11.40;;;;;;;20.48;100.00;95946.44;5068133;28;20020;-80
2023/08/05 02:51:55;;;;;;;17.10;11.40;;;;;;;20.66;100.00;95948.25;5045335;28;20112;-80
2023/08/05 02:54:21;;;;;;;15.98;10.75;;;;;;;20.42;100.00;95950.84;5055810;28;20024;-80
2023/08/05 02:56:46;;;;;;;18.27;11.17;;;;;;;20.52;100.00;95960.97;5055378;28;20386;-80
2023/08/05 02:59:12;;;;;;;17.10;11.10;;;;;;;20.75;100.00;95970.91;5064085;28;20542;-80
2023/08/05 03:01:37;;;;;;;16.13;10.77;;;;;;;20.59;100.00;95976.91;5056452;28;20386;-80
2023/08/05 03:04:06;;;;;;;15.25;11.07;;;;;;;20.49;100.00;95982.81;5067561;28;20029;-80
2023/08/05 03:06:32;;;;;;;15.77;10.60;;;;;;;20.49;100.00;95988.16;5056366;28;20526;-80
2023/08/05 03:08:57;;;;;;;18.23;11.02;;;;;;;20.71;100.00;95999.94;5067861;28;20103;-80
2023/08/05 03:11:23;;;;;;;15.55;10.15;;;;;;;20.64;100.00;96001.09;5072291;28;20028;-80
2023/08/05 03:13:54;;;;;;;13.23;10.45;;;;;;;20.80;100.00;96013.81;5056071;28;20114;-80
2023/08/05 03:16:20;;;;;;;15.30;11.13;;;;;;;20.65;100.00;96018.75;5073164;28;20028;-80
2023/08/05 03:19:02;;;;;;;17.10;10.15;;;;;;;20.90;100.00;96016.75;5072165;28;20025;-80
2023/08/05 03:21:29;;;;;;;14.45;10.77;;;;;;;20.98;100.00;96030.81;5044725;28;20032;-80
2023/08/05 03:23:55;;;;;;;16.00;10.27;;;;;;;20.93;100.00;96028.84;5048084;28;20041;-80
2023/08/05 03:26:21;;;;;;;15.93;10.82;;;;;;;20.92;100.00;96025.34;5064039;28;20025;-80
2023/08/05 03:28:47;;;;;;;17.60;10.88;;;;;;;20.97;100.00;96024.66;5053662;28;20021;-80
2023/08/05 03:31:12;;;;;;;17.77;11.07;;;;;;;21.07;100.00;96021.41;5052246;28;20072;-80
2023/08/05 03:33:41;;;;;;;17.58;12.02;;;;;;;21.04;100.00;96028.03;5055638;28;20685;-80
2023/08/05 03:36:07;;;;;;;15.52;10.30;;;;;;;20.99;100.00;96029.75;5055446;28;20529;-80
2023/08/05 03:38:33;;;;;;;16.20;10.75;;;;;;;20.95;100.00;96035.56;5072466;28;20020;-80
2023/08/05 03:41:04;;;;;;;15.75;10.45;;;;;;;20.61;100.00;96034.44;5055468;28;20077;-80
2023/08/05 03:43:46;;;;;;;15.50;11.55;;;;;;;20.80;100.00;96032.53;5067579;28;20024;-80
2023/08/05 03:46:12;;;;;;;20.95;11.55;;;;;;;20.51;100.00;96042.16;5053166;28;20280;-80
2023/08/05 03:48:38;;;;;;;19.42;11.70;;;;;;;20.69;100.00;96041.28;5053854;28;20616;-80
2023/08/05 03:51:04;;;;;;;17.08;11.52;;;;;;;20.81;100.00;96034.13;5059492;28;20024;-80
2023/08/05 03:53:30;;;;;;;14.93;10.93;;;;;;;20.93;100.00;96037.66;5044341;28;20098;-79
2023/08/05 03:55:56;;;;;;;16.90;11.93;;;;;;;20.90;100.00;96043.47;5047197;28;20030;-80
2023/08/05 03:58:23;;;;;;;19.45;11.77;;;;;;;20.81;100.00;96047.50;5071765;28;20032;-80
2023/08/05 04:00:50;;;;;;;15.70;11.32;;;;;;;20.19;100.00;96053.03;5076200;28;20020;-81
2023/08/05 04:03:16;;;;;;;17.42;10.40;;;;;;;20.54;100.00;96059.59;5055888;28;20024;-80
2023/08/05 04:05:43;;;;;;;15.23;10.57;;;;;;;20.68;100.00;96063.72;5053800;28;20043;-80
2023/08/05 04:08:09;;;;;;;15.60;10.98;;;;;;;20.81;100.00;96060.88;5055408;28;20027;-80
2023/08/05 04:10:36;;;;;;;14.98;10.07;;;;;;;20.78;100.00;96066.66;5055661;28;20115;-80
2023/08/05 04:13:03;;;;;;;13.82;9.60;;;;;;;20.58;100.00;96074.94;5072032;28;20056;-80
2023/08/05 04:15:30;;;;;;;18.83;10.18;;;;;;;20.48;100.00;96066.63;5051331;28;20024;-80
2023/08/05 04:17:59;;;;;;;15.52;9.25;;;;;;;20.55;100.00;96064.72;5042971;28;20059;-80
2023/08/05 04:20:27;;;;;;;13.02;9.18;;;;;;;20.46;100.00;96058.84;5063557;28;20029;-80
2023/08/05 04:22:53;;;;;;;17.83;10.38;;;;;;;20.62;100.00;96054.78;5069943;28;20020;-80
2023/08/05 04:25:19;;;;;;;14.13;9.52;;;;;;;20.76;100.00;96049.22;5053953;28;20117;-80
2023/08/05 04:27:45;;;;;;;12.55;9.20;;;;;;;20.64;100.00;96049.19;5071750;28;20115;-80
2023/08/05 04:30:11;;;;;;;12.88;8.85;;;;;;;20.49;100.00;96039.72;5055086;28;20035;-80
2023/08/05 04:32:36;;;;;;;13.55;9.15;;;;;;;20.28;100.00;96045.50;5061331;28;20029;-80
2023/08/05 04:35:17;;;;;;;12.75;8.77;;;;;;;20.41;100.00;96045.34;5051292;28;20020;-80
2023/08/05 04:37:43;;;;;;;14.30;9.52;;;;;;;20.29;100.00;96043.66;5055299;28;20023;-80
2023/08/05 04:40:10;;;;;;;14.48;9.43;;;;;;;20.09;100.00;96046.59;5065167;28;20021;-80
2023/08/05 04:42:35;;;;;;;14.32;10.40;;;;;;;20.59;100.00;96049.88;5052590;28;20470;-80
2023/08/05 04:45:01;;;;;;;16.02;10.35;;;;;;;20.22;100.00;96057.09;5051385;28;20028;-80
2023/08/05 04:47:26;;;;;;;17.13;9.95;;;;;;;20.35;100.00;96066.81;5064288;28;20029;-80
2023/08/05 04:49:52;;;;;;;15.68;9.60;;;;;;;20.27;100.00;96059.91;5067236;28;20020;-80
2023/08/05 04:52:17;;;;;;;16.73;10.30;;;;;;;20.09;100.00;96058.09;5055131;28;20029;-80
2023/08/05 04:54:57;;;;;;;11.40;8.45;;;;;;;20.19;100.00;96053.03;5070771;28;20032;-80
2023/08/05 04:57:23;;;;;;;13.82;8.32;;;;;;;20.36;100.00;96065.78;5070217;28;20025;-80
2023/08/05 04:59:48;;;;;;;15.85;9.15;;;;;;;20.14;100.00;96060.06;5053235;28;20025;-80
2023/08/05 05:02:14;;;;;;;14.40;9.63;;;;;;;20.21;100.00;96064.28;5051861;28;20021;-80
2023/08/05 05:04:39;;;;;;;17.10;10.45;;;;;;;20.32;100.00;96059.22;5053738;28;20013;-81
2023/08/05 05:07:05;;;;;;;17.50;10.45;;;;;;;20.34;100.00;96049.97;5054552;28;20024;-80
2023/08/05 05:09:32;;;;;;;15.38;10.60;;;;;;;20.45;100.00;96048.38;5046877;28;20103;-79
2023/08/05 05:12:00;;;;;;;16.65;10.50;;;;;;;20.49;100.00;96055.75;5071444;28;20150;-80
2023/08/05 05:14:25;;;;;;;24.77;11.02;;;;;;;20.33;100.00;96058.22;5054567;28;20013;-80
2023/08/05 05:16:51;;;;;;;15.23;9.85;;;;;;;20.33;100.00;96053.69;5060257;28;20489;-80
2023/08/05 05:20:01;;;;;;;14.63;10.80;;;;;;;20.15;100.00;96056.34;5052579;28;20390;-80
2023/08/05 05:22:32;;;;;;;16.27;11.07;;;;;;;19.90;100.00;96056.44;5054287;28;20112;-81
2023/08/05 05:24:58;;;;;;;16.40;10.95;;;;;;;19.69;100.00;96053.19;5044118;28;20103;-81
2023/08/05 05:27:24;;;;;;;21.30;13.07;;;;;;;19.98;100.00;96050.81;5070736;28;20107;-81
2023/08/05 05:29:49;;;;;;;19.63;11.55;;;;;;;20.25;100.00;96043.28;5054060;28;20058;-81
2023/08/05 05:32:15;;;;;;;19.23;13.02;;;;;;;19.78;100.00;96046.53;5070409;28;20036;-81
2023/08/05 05:34:40;;;;;;;15.32;11.57;;;;;;;20.63;100.00;96037.69;5067628;28;20050;-81
2023/08/05 05:37:07;;;;;;;16.40;12.30;;;;;;;20.32;100.00;96038.72;5056116;28;20462;-81
2023/08/05 05:39:33;;;;;;;17.73;12.13;;;;;;;19.95;100.00;96043.25;5055514;28;20115;-81
2023/08/05 05:42:02;;;;;;;16.85;12.35;;;;;;;20.35;100.00;96035.56;5062637;28;20025;-81
2023/08/05 05:44:28;;;;;;;17.10;12.07;;;;;;;20.10;100.00;96041.03;5045321;28;20027;-81
2023/08/05 05:46:54;;;;;;;20.52;13.88;;;;;;;20.40;100.00;96033.03;5058942;28;20020;-81
2023/08/05 05:49:20;;;;;;;19.05;12.73;;;;;;;20.78;100.00;96036.47;5071551;28;20035;-83
2023/08/05 05:51:46;;;;;;;20.20;12.43;;;;;;;20.60;100.00;96034.66;5050544;28;20025;-81
2023/08/05 05:54:12;;;;;;;19.95;13.35;;;;;;;20.60;100.00;96037.34;5071646;28;20012;-81
2023/08/05 05:56:38;;;;;;;21.48;12.15;;;;;;;20.84;100.00;96039.03;5064611;28;20047;-81
2023/08/05 05:59:03;;;;;;;17.42;12.77;;;;;;;20.45;100.00;96045.72;5042475;28;20060;-81
2023/08/05 06:01:31;;;;;;;16.55;12.48;;;;;;;20.63;100.00;96037.69;5052122;28;20025;-82
2023/08/05 06:03:57;;;;;;;23.73;13.95;;;;;;;21.08;100.00;96028.38;5067158;28;20598;-82
2023/08/05 06:06:22;;;;;;;16.15;11.88;;;;;;;20.60;100.00;96034.66;5068139;28;20059;-81
2023/08/05 06:08:48;;;;;;;18.73;11.93;;;;;;;20.79;100.00;96025.56;5066300;28;20044;-81
2023/08/05 06:11:14;;;;;;;18.65;12.93;;;;;;;21.02;100.00;96034.66;5072276;28;20029;-81
2023/08/05 06:13:39;;;;;;;18.50;12.63;;;;;;;20.92;100.00;96033.38;5062576;28;20052;-82
2023/08/05 06:16:05;;;;;;;19.08;12.75;;;;;;;21.18;100.00;96033.97;5053420;28;20021;-81
2023/08/05 06:18:31;;;;;;;20.83;13.68;;;;;;;20.82;100.00;96025.06;5053818;28;20397;-81
2023/08/05 06:21:00;;;;;;;17.25;12.93;;;;;;;20.82;100.00;96026.94;5063667;28;20025;-81
2023/08/05 06:23:26;;;;;;;18.25;12.43;;;;;;;21.23;100.00;96034.13;5069932;28;20021;-81
2023/08/05 06:25:51;;;;;;;18.15;12.23;;;;;;;21.24;100.00;96038.41;5057137;28;20024;-81
2023/08/05 06:28:17;;;;;;;19.83;12.77;;;;;;;21.03;100.00;96045.13;5060058;28;20028;-82
2023/08/05 06:30:49;;;;;;;24.33;12.77;;;;;;;21.00;100.00;96047.44;5058546;28;20021;-81
2023/08/05 06:33:16;;;;;;;15.38;11.75;;;;;;;20.95;100.00;96054.28;5071484;28;20033;-81
2023/08/05 06:35:42;;;;;;;18.83;12.45;;;;;;;21.37;100.00;96053.47;5057855;28;20495;-81
2023/08/05 06:38:08;;;;;;;18.15;12.85;;;;;;;21.58;100.00;96058.22;5068799;28;20024;-81
2023/08/05 06:40:34;;;;;;;17.95;12.27;;;;;;;21.30;100.00;96053.53;5073629;28;20039;-81
2023/08/05 06:42:59;;;;;;;15.75;11.85;;;;;;;21.58;100.00;96060.09;5069785;28;20016;-81
2023/08/05 06:45:47;;;;;;;18.73;12.52;;;;;;;21.59;100.00;96049.13;5070798;28;20029;-81
2023/08/05 06:48:13;;;;;;;17.73;11.35;;;;;;;22.06;100.00;96042.94;5071348;28;20028;-81
2023/08/05 06:50:47;;;;;;;15.40;11.82;;;;;;;21.56;100.00;96052.31;5069470;28;20025;-81
2023/08/05 06:53:12;;;;;;;16.90;11.63;;;;;;;21.95;100.00;96054.47;5062942;28;20033;-81
2023/08/05 06:55:38;;;;;;;16.88;11.60;;;;;;;22.03;100.00;96054.09;5072934;28;20125;-81
2023/08/05 06:58:04;;;;;;;14.80;10.82;;;;;;;22.08;100.00;96049.69;5055281;28;20064;-81
2023/08/05 07:00:31;;;;;;;13.38;10.00;;;;;;;21.97;100.00;96063.09;5056451;28;20120;-81
2023/08/05 07:02:57;;;;;;;14.35;10.70;;;;;;;22.13;100.00;96067.72;5067561;28;20031;-81
2023/08/05 07:05:49;;;;;;;16.42;11.32;;;;;;;22.11;100.00;96053.75;5052543;28;20032;-81
2023/08/05 07:08:14;;;;;;;16.92;10.75;;;;;;;21.57;100.00;96053.94;5065756;28;20368;-81
2023/08/05 07:10:40;;;;;;;15.00;10.93;;;;;;;22.15;100.00;96046.91;5074145;28;20027;-81
2023/08/05 07:13:06;;;;;;;16.13;10.88;;;;;;;21.97;100.00;96047.03;5052163;28;20471;-81
2023/08/05 07:15:36;;;;;;;13.18;10.13;;;;;;;21.28;100.00;96052.94;5051194;28;20111;-81
2023/08/05 07:18:03;;;;;;;16.67;11.15;;;;;;;21.79;100.00;96053.31;5067378;28;20059;-81
2023/08/05 07:20:29;;;;;;;13.27;10.23;;;;;;;21.96;100.00;96056.91;5066230;28;20379;-81
2023/08/05 07:22:54;;;;;;;14.85;10.68;;;;;;;21.98;100.00;96049.47;5067800;28;20017;-82
2023/08/05 07:25:21;;;;;;;14.07;10.70;;;;;;;22.57;100.00;96046.66;5069275;28;20049;-83
2023/08/05 07:27:50;;;;;;;14.20;8.63;;;;;;;22.79;100.00;96042.22;5057658;28;20043;-88
2023/08/05 07:30:15;;;;;;;16.48;10.90;;;;;;;22.67;100.00;96037.97;5056414;28;20048;-81
2023/08/05 07:32:41;;;;;;;17.08;10.43;;;;;;;22.52;100.00;96033.16;5051737;28;20024;-81
2023/08/05 07:35:07;;;;;;;14.10;9.98;;;;;;;22.63;100.00;96028.78;5072060;28;20120;-81
2023/08/05 07:37:34;;;;;;;13.65;9.27;;;;;;;22.71;100.00;96018.50;5072363;28;20830;-79
2023/08/05 07:40:00;;;;;;;13.93;10.05;;;;;;;22.61;100.00;96020.19;5072152;28;20034;-79
2023/08/05 07:42:27;;;;;;;14.23;10.70;;;;;;;22.74;100.00;96015.34;5073218;28;20035;-80
2023/08/05 07:44:53;;;;;;;13.25;9.50;;;;;;;22.83;100.00;96019.25;5055662;28;20028;-80
2023/08/05 07:47:19;;;;;;;11.90;8.68;;;;;;;22.43;100.00;96024.66;5070688;28;20551;-80
2023/08/05 07:49:45;;;;;;;12.98;9.43;;;;;;;22.29;100.00;96029.50;5072033;28;20025;-80
2023/08/05 07:52:10;;;;;;;13.63;9.18;;;;;;;22.90;100.00;96020.97;5063525;28;20025;-80
2023/08/05 07:54:39;;;;;;;16.17;8.60;;;;;;;23.20;100.00;96018.81;5053826;28;20094;-83
2023/08/05 07:57:11;;;;;;;14.02;9.25;;;;;;;23.72;100.00;96020.44;5064193;28;20028;-86
2023/08/05 07:59:36;;;;;;;11.38;8.57;;;;;;;23.61;100.00;96013.25;5054871;28;20032;-80
2023/08/05 08:02:02;;;;;;;14.55;8.80;;;;;;;23.44;100.00;96021.31;5052523;28;20425;-80
2023/08/05 08:04:34;;;;;;;13.15;9.00;;;;;;;23.16;100.00;96017.66;5055546;28;20028;-80
2023/08/05 08:07:04;;;;;;;12.55;8.27;;;;;;;23.63;100.00;96013.81;5068482;28;20409;-80
2023/08/05 08:09:37;;;;;;;12.82;9.18;;;;;;;23.70;100.00;96012.59;5057522;28;20035;-77
2023/08/05 08:12:05;;;;;;;12.13;8.18;;;;;;;23.63;100.00;96011.13;5052229;28;20094;-79
2023/08/05 08:14:53;;;;;;;10.75;7.97;;;;;;;23.52;100.00;96007.50;5051913;28;20040;-79
2023/08/05 08:17:50;;;;;;;13.73;9.35;;;;;;;23.95;100.00;96016.72;5052168;28;20032;-79
2023/08/05 08:20:20;;;;;;;11.05;7.70;;;;;;;23.55;100.00;96020.44;5070287;28;20029;-80
2023/08/05 08:22:45;;;;;;;10.80;7.50;;;;;;;23.75;100.00;96017.25;5051544;28;20021;-79
2023/08/05 08:25:11;;;;;;;11.98;7.47;;;;;;;23.67;100.00;96023.00;5036563;28;20021;-79
2023/08/05 08:27:49;;;;;;;11.25;7.05;;;;;;;23.87;100.00;96028.66;5046698;28;20025;-80
2023/08/05 08:30:22;;;;;;;9.82;6.97;;;;;;;24.17;100.00;96032.81;5071809;28;20021;-79
2023/08/05 08:32:48;;;;;;;11.05;7.28;;;;;;;24.35;100.00;96026.31;5054646;28;20082;-80
2023/08/05 08:35:14;;;;;;;10.88;6.68;;;;;;;24.80;100.00;96025.22;5052678;28;20490;-79
2023/08/05 08:37:39;;;;;;;11.50;6.75;;;;;;;24.92;100.00;96023.19;5071870;28;20039;-78
2023/08/05 08:40:05;;;;;;;11.88;6.90;;;;;;;24.81;100.00;96016.06;5060225;28;20081;-79
2023/08/05 08:42:31;;;;;;;8.93;6.60;;;;;;;25.03;100.00;96014.13;5069086;28;20411;-78
2023/08/05 08:45:00;;;;;;;8.35;5.95;;;;;;;24.81;100.00;96027.63;5062214;28;20027;-78
2023/08/05 08:47:40;;;;;;;10.02;6.32;;;;;;;24.83;100.00;96030.88;5058165;28;20174;-77
2023/08/05 08:50:07;;;;;;;9.77;6.43;;;;;;;24.79;100.00;96028.97;5054802;28;20033;-78
2023/08/05 08:52:41;;;;;;;8.85;5.82;;;;;;;24.81;100.00;96021.44;5053917;28;20413;-78
2023/08/05 08:55:08;;;;;;;9.50;6.47;;;;;;;24.89;100.00;96024.50;5070214;28;20108;-77
2023/08/05 08:57:34;;;;;;;10.20;6.43;;;;;;;24.82;100.00;96023.91;5050738;28;20062;-79
2023/08/05 09:00:00;;;;;;;9.75;6.05;;;;;;;24.71;100.00;96030.22;5067564;28;20024;-77
2023/08/05 09:02:26;;;;;;;24.85;13.90;;;;;;;24.96;100.00;96029.66;5051570;28;20027;-81
2023/08/05 09:04:54;;;;;;;16.63;7.45;;;;;;;25.13;100.00;96029.56;5059942;28;20024;-87
2023/08/05 09:07:27;;;;;;;6.82;5.30;;;;;;;25.01;100.00;96026.19;5062955;28;20613;-77
2023/08/05 09:09:53;;;;;;;9.52;6.22;;;;;;;25.20;100.00;96013.22;5060775;28;20487;-76
2023/08/05 09:12:36;;;;;;;7.28;4.38;;;;;;;25.55;100.00;96016.19;5055993;28;20029;-77
2023/08/05 09:15:01;;;;;;;9.68;5.47;;;;;;;26.01;100.00;96008.38;5060188;28;20111;-77
2023/08/05 09:17:37;;;;;;;8.95;4.68;;;;;;;26.16;100.00;96013.03;5046785;28;20116;-77
2023/08/05 09:20:13;;;;;;;7.22;4.82;;;;;;;27.24;100.00;96001.41;5053334;28;20025;-78
2023/08/05 09:22:38;;;;;;;7.57;4.63;;;;;;;27.17;100.00;95998.19;5049722;28;20095;-77
2023/08/05 09:25:17;;;;;;;12.95;6.28;;;;;;;27.12;100.00;96002.72;5073085;28;20036;-77
2023/08/05 09:27:47;;;;;;;7.57;3.95;;;;;;;26.69;100.00;96005.63;5063088;28;20028;-77
2023/08/05 09:30:15;;;;;;;7.90;4.40;;;;;;;26.72;100.00;96002.41;5053583;28;20064;-77
2023/08/05 09:32:51;;;;;;;8.75;5.50;;;;;;;27.15;100.00;95991.41;5066357;28;20024;-77
2023/08/05 09:35:17;;;;;;;6.57;3.88;;;;;;;27.39;100.00;95995.16;5055831;28;20398;-78
2023/08/05 09:37:49;;;;;;;9.40;5.93;;;;;;;26.53;100.00;96002.13;5061910;28;20032;-77
2023/08/05 09:40:19;;;;;;;10.07;6.43;;;;;;;25.86;100.00;96014.50;5063331;28;20021;-77
2023/08/05 09:42:50;;;;;;;10.85;6.18;;;;;;;26.56;100.00;96004.28;5056565;28;20477;-77
2023/08/05 09:45:17;;;;;;;8.07;5.97;;;;;;;26.61;100.00;95999.97;5064565;28;20104;-78
2023/08/05 09:47:43;;;;;;;11.77;6.45;;;;;;;26.27;100.00;96008.47;5052860;28;20519;-78
2023/08/05 09:50:14;;;;;;;9.20;5.55;;;;;;;26.75;100.00;95998.38;5054183;28;20025;-78
2023/08/05 09:52:43;;;;;;;12.15;8.57;;;;;;;25.85;100.00;96003.97;5046201;28;20070;-77
2023/08/05 09:55:14;;;;;;;10.52;7.13;;;;;;;26.12;100.00;96000.31;5057317;28;20089;-77
2023/08/05 09:57:41;;;;;;;7.45;5.30;;;;;;;26.49;100.00;95992.94;5055708;28;20048;-77
2023/08/05 10:00:14;;;;;;;10.55;6.68;;;;;;;26.21;100.00;95988.78;5053855;28;20045;-77
2023/08/05 10:02:45;;;;;;;7.57;5.00;;;;;;;26.01;100.00;95984.09;5065516;28;20025;-77
2023/08/05 10:05:12;;;;;;;8.27;5.93;;;;;;;26.34;100.00;95968.59;5067564;28;20024;-77
2023/08/05 10:07:41;;;;;;;10.02;6.05;;;;;;;26.52;100.00;95978.09;5073839;28;20463;-77
2023/08/05 10:10:16;;;;;;;10.18;5.55;;;;;;;26.30;100.00;95973.72;5073729;28;20028;-77
2023/08/05 10:12:50;;;;;;;6.78;4.97;;;;;;;26.21;100.00;95979.88;5073569;28;20091;-77
2023/08/05 10:15:26;;;;;;;8.35;5.63;;;;;;;26.07;100.00;95980.38;5054176;28;20456;-77
2023/08/05 10:17:52;;;;;;;9.60;6.70;;;;;;;26.64;100.00;95967.88;5068308;28;20027;-77
2023/08/05 10:20:20;;;;;;;7.57;5.75;;;;;;;27.00;100.00;95960.63;5073367;28;20031;-77
2023/08/05 10:23:05;;;;;;;6.57;5.30;;;;;;;28.17;100.00;95956.91;5052021;28;20021;-77
2023/08/05 10:25:57;;;;;;;12.15;7.20;;;;;;;27.89;100.00;95961.03;5054883;28;20025;-77
2023/08/05 10:28:22;;;;;;;17.80;12.80;;;;;;;27.77;100.00;95960.56;5073746;28;20028;-77
2023/08/05 10:30:48;;;;;;;18.00;11.02;;;;;;;27.15;100.00;95956.31;5053604;28;20219;-77
2023/08/05 10:33:15;;;;;;;9.38;7.25;;;;;;;27.03;100.00;95961.97;5072177;28;20033;-78
2023/08/05 10:35:45;;;;;;;8.50;3.95;;;;;;;27.25;100.00;95962.53;5056157;28;20425;-77
2023/08/05 10:38:23;;;;;;;7.03;3.83;;;;;;;26.59;100.00;95964.34;5071501;28;20105;-77
2023/08/05 10:41:03;;;;;;;6.38;4.07;;;;;;;27.21;100.00;95963.34;5056626;28;20044;-78
2023/08/05 10:43:31;;;;;;;8.27;4.95;;;;;;;27.29;100.00;95962.78;5051232;28;20092;-78
2023/08/05 10:46:01;;;;;;;5.72;3.85;;;;;;;27.33;100.00;95958.47;5069586;28;20453;-78
2023/08/05 10:48:42;;;;;;;6.00;4.28;;;;;;;27.06;100.00;95957.91;5068911;28;20017;-77
2023/08/05 10:51:19;;;;;;;6.28;4.07;;;;;;;27.62;100.00;95958.66;5074122;28;20711;-77
2023/08/05 10:53:51;;;;;;;8.38;4.03;;;;;;;27.33;100.00;95957.66;5056255;28;20628;-77
2023/08/05 10:56:18;;;;;;;8.07;3.90;;;;;;;27.71;100.00;95948.94;5064295;28;20360;-77
2023/08/05 10:58:50;;;;;;;8.50;3.88;;;;;;;27.81;100.00;95937.31;5072719;28;20051;-77
2023/08/05 11:01:17;;;;;;;6.60;3.80;;;;;;;28.48;94.41;95940.53;5073264;28;20028;-77
2023/08/05 11:03:52;;;;;;;6.88;3.38;;;;;;;28.33;87.30;95935.97;5062360;28;20047;-77
2023/08/05 11:06:25;;;;;;;5.70;2.83;;;;;;;28.66;83.24;95925.50;5054718;28;20034;-77
2023/08/05 11:08:51;;;;;;;3.88;2.78;;;;;;;29.30;74.57;95924.44;5074561;28;20024;-77
2023/08/05 11:11:17;;;;;;;4.90;2.92;;;;;;;30.04;72.75;95916.84;5055713;28;20498;-77
2023/08/05 11:13:47;;;;;;;5.85;3.58;;;;;;;30.20;70.87;95925.63;5054831;28;20033;-78
2023/08/05 11:16:15;;;;;;;10.18;3.28;;;;;;;30.13;71.67;95919.75;5072260;28;20024;-78
2023/08/05 11:18:42;;;;;;;5.60;2.53;;;;;;;29.63;74.90;95916.56;5077040;28;20047;-78
2023/08/05 11:21:10;;;;;;;6.75;3.05;;;;;;;30.36;70.53;95901.03;5055898;28;20115;-78